Time;durP1;ratioP1;P1;durP2;ratioP2;P2;SDS_P1;SDS_P2;PMS_P1;PMS_P2;Temp;Humidity;BMP_temperature;BMP_pressure;BME280_temperature;BME280_humidity;BME280_pressure;Samples;Min_cycle;Max_cycle;Signal;HPM_P1;HPM_P2
2021/08/09 00:01:22;;;;;;;7.28;2.50;;;;;;;17.22;67.53;101259.66;5032329;28;20029;-63
2021/08/09 00:03:50;;;;;;;9.07;2.83;;;;;;;17.20;67.68;101259.16;5032528;28;20050;-63
2021/08/09 00:06:17;;;;;;;5.18;2.50;;;;;;;17.16;67.54;101258.94;5032434;28;20037;-62
2021/08/09 00:08:45;;;;;;;8.13;3.13;;;;;;;17.15;67.66;101260.06;5032417;28;20049;-63
2021/08/09 00:11:12;;;;;;;8.45;2.80;;;;;;;17.18;67.56;101258.66;5031294;28;20048;-63
2021/08/09 00:13:40;;;;;;;7.28;2.50;;;;;;;17.18;67.48;101261.41;5032466;28;20049;-63
2021/08/09 00:16:08;;;;;;;8.10;3.00;;;;;;;17.18;67.74;101255.88;5032609;28;20049;-62
2021/08/09 00:18:36;;;;;;;7.22;2.78;;;;;;;17.13;68.00;101269.75;5032397;28;20099;-63
2021/08/09 00:21:03;;;;;;;11.13;3.00;;;;;;;17.14;68.12;101268.63;5032382;28;20045;-63
2021/08/09 00:23:31;;;;;;;10.27;3.33;;;;;;;17.15;67.99;101267.47;5032028;28;20049;-63
2021/08/09 00:25:58;;;;;;;6.47;2.72;;;;;;;17.14;67.77;101260.34;5032516;28;20052;-62
2021/08/09 00:28:26;;;;;;;7.38;3.00;;;;;;;17.13;67.76;101267.00;5035943;28;20041;-63
2021/08/09 00:30:53;;;;;;;6.93;2.45;;;;;;;17.12;67.92;101266.16;5040857;28;20045;-63
2021/08/09 00:33:35;;;;;;;5.72;2.50;;;;;;;17.14;67.98;101276.88;5040917;28;20069;-63
2021/08/09 00:36:03;;;;;;;8.70;2.88;;;;;;;17.12;67.68;101270.84;5030601;28;20045;-63
2021/08/09 00:38:32;;;;;;;8.20;3.33;;;;;;;17.08;67.71;101267.91;5031059;28;20058;-63
2021/08/09 00:40:59;;;;;;;9.02;3.00;;;;;;;17.08;67.58;101280.81;5030747;28;20115;-63
2021/08/09 00:43:28;;;;;;;8.27;3.03;;;;;;;17.04;67.47;101278.69;5037843;28;20503;-63
2021/08/09 00:45:57;;;;;;;7.40;2.88;;;;;;;17.03;67.72;101279.00;5050812;28;20049;-63
2021/08/09 00:48:26;;;;;;;6.60;2.65;;;;;;;17.01;67.70;101276.53;5045129;28;20053;-64
2021/08/09 00:50:58;;;;;;;9.15;2.65;;;;;;;16.99;67.66;101272.44;5030634;28;20049;-63
2021/08/09 00:53:27;;;;;;;8.88;2.90;;;;;;;16.99;67.84;101269.69;5031868;28;20504;-63
2021/08/09 00:55:59;;;;;;;5.93;2.60;;;;;;;16.99;67.65;101273.25;5031106;28;20054;-63
2021/08/09 00:58:26;;;;;;;9.20;2.80;;;;;;;16.95;67.65;101274.97;5029000;28;20041;-63
2021/08/09 01:00:54;;;;;;;12.70;3.25;;;;;;;16.93;67.72;101279.97;5041660;28;20051;-63
2021/08/09 01:03:23;;;;;;;10.38;2.97;;;;;;;16.91;67.76;101276.72;5036762;28;20046;-63
2021/08/09 01:05:51;;;;;;;8.88;2.85;;;;;;;16.93;67.77;101276.38;5050118;28;20102;-63
2021/08/09 01:08:29;;;;;;;7.90;2.78;;;;;;;16.93;67.53;101276.38;5035487;28;20042;-62
2021/08/09 01:11:06;;;;;;;7.70;2.42;;;;;;;16.94;68.02;101273.34;5030555;28;20408;-63
2021/08/09 01:14:19;;;;;;;9.95;2.92;;;;;;;16.91;67.76;101279.47;5014076;28;20045;-63
2021/08/09 01:16:58;;;;;;;9.73;2.85;;;;;;;16.89;67.81;101280.88;5030521;28;20128;-63
2021/08/09 01:19:58;;;;;;;8.30;2.88;;;;;;;16.88;67.78;101280.03;5022866;28;20520;-62
2021/08/09 01:22:52;;;;;;;11.10;2.97;;;;;;;16.87;67.85;101283.91;5031127;28;20463;-63
2021/08/09 01:25:42;;;;;;;8.32;2.95;;;;;;;16.85;67.90;101288.09;5030494;28;20041;-63
2021/08/09 01:28:10;;;;;;;7.07;2.80;;;;;;;16.87;68.17;101280.34;5030752;28;20042;-63
2021/08/09 01:30:39;;;;;;;8.40;2.95;;;;;;;16.85;67.67;101290.84;5030254;28;20067;-62
2021/08/09 01:33:09;;;;;;;9.60;3.35;;;;;;;16.84;67.35;101287.28;5030337;28;20057;-63
2021/08/09 01:35:40;;;;;;;9.00;3.22;;;;;;;16.82;67.46;101287.56;5045152;28;20063;-63
2021/08/09 01:38:09;;;;;;;9.85;3.20;;;;;;;16.81;67.65;101287.84;5026424;28;20643;-63
2021/08/09 01:40:39;;;;;;;9.65;3.20;;;;;;;16.80;67.78;101292.53;5028205;28;20099;-60
2021/08/09 01:43:06;;;;;;;8.25;3.00;;;;;;;16.79;67.26;101292.88;5020675;28;20490;-63
2021/08/09 01:45:35;;;;;;;11.15;3.30;;;;;;;16.75;67.30;101286.28;5037459;28;20559;-63
2021/08/09 01:48:03;;;;;;;7.88;2.78;;;;;;;16.72;67.42;101289.63;5033410;28;20550;-63
2021/08/09 01:50:36;;;;;;;6.85;2.35;;;;;;;16.72;67.65;101295.94;5033657;28;20536;-63
2021/08/09 01:53:06;;;;;;;8.65;2.65;;;;;;;16.74;67.77;101295.63;5033553;28;20120;-62
2021/08/09 01:55:36;;;;;;;9.60;3.03;;;;;;;16.74;67.76;101301.13;5017964;28;20236;-63
2021/08/09 01:58:06;;;;;;;9.93;2.80;;;;;;;16.75;67.47;101291.78;5033571;28;20518;-60
2021/08/09 02:00:35;;;;;;;9.30;3.33;;;;;;;16.76;67.68;101294.25;5033468;28;20500;-61
2021/08/09 02:03:04;;;;;;;8.65;3.15;;;;;;;16.75;67.41;101289.84;5033433;28;20508;-62
2021/08/09 02:05:33;;;;;;;10.73;2.88;;;;;;;16.73;67.56;101294.00;5033316;28;20500;-63
2021/08/09 02:08:09;;;;;;;9.93;3.13;;;;;;;16.73;67.63;101296.75;5033759;28;20560;-62
2021/08/09 02:10:37;;;;;;;8.38;3.00;;;;;;;16.71;67.69;101297.03;5033855;28;20451;-61
2021/08/09 02:13:35;;;;;;;6.68;2.60;;;;;;;16.72;67.69;101306.97;5033574;28;20373;-63
2021/08/09 02:16:12;;;;;;;9.23;3.05;;;;;;;16.71;67.34;101301.75;5033364;28;20575;-60
2021/08/09 02:18:51;;;;;;;6.90;2.67;;;;;;;16.69;67.22;101303.97;5031690;28;20498;-62
2021/08/09 02:21:47;;;;;;;6.30;2.60;;;;;;;16.67;67.39;101306.19;5033322;28;20045;-61
2021/08/09 02:24:21;;;;;;;13.05;3.28;;;;;;;16.66;67.14;101307.31;5033599;28;20124;-62
2021/08/09 02:26:53;;;;;;;13.20;3.40;;;;;;;16.63;67.76;101305.97;5031003;28;20164;-63
2021/08/09 02:29:27;;;;;;;9.45;2.85;;;;;;;16.65;68.08;101298.25;5026000;28;20045;-63
2021/08/09 02:31:56;;;;;;;9.27;3.10;;;;;;;16.64;67.95;101295.78;5036157;28;20049;-63
2021/08/09 02:34:26;;;;;;;10.40;3.17;;;;;;;16.61;67.67;101295.25;5035193;28;20049;-62
2021/08/09 02:36:55;;;;;;;8.77;3.08;;;;;;;16.60;67.62;101301.91;5041343;28;20128;-63
2021/08/09 02:39:24;;;;;;;7.65;2.90;;;;;;;16.58;67.54;101298.63;5034061;28;20491;-63
2021/08/09 02:41:52;;;;;;;10.20;3.20;;;;;;;16.57;67.91;101294.25;5026370;28;20734;-63
2021/08/09 02:44:21;;;;;;;6.40;2.90;;;;;;;16.52;67.91;101299.78;5033095;28;20057;-62
2021/08/09 02:46:49;;;;;;;8.80;2.80;;;;;;;16.46;68.19;101295.50;5032390;28;20389;-63
2021/08/09 02:49:18;;;;;;;8.63;2.88;;;;;;;16.45;68.37;101293.88;5032648;28;20064;-63
2021/08/09 02:51:47;;;;;;;8.23;2.60;;;;;;;16.46;67.94;101295.50;5034074;28;20128;-63
2021/08/09 02:54:17;;;;;;;7.25;2.75;;;;;;;16.50;68.35;101292.94;5016306;28;20045;-61
2021/08/09 02:56:48;;;;;;;7.05;2.88;;;;;;;16.50;67.95;101290.19;5033697;28;20040;-63
2021/08/09 02:59:17;;;;;;;7.13;3.25;;;;;;;16.49;68.08;101291.31;5030057;28;20376;-63
2021/08/09 03:01:46;;;;;;;10.07;3.03;;;;;;;16.49;68.05;101286.63;5037961;28;20033;-63
2021/08/09 03:04:16;;;;;;;9.88;2.90;;;;;;;16.49;67.50;101286.63;5041093;28;20099;-63
2021/08/09 03:06:44;;;;;;;7.82;3.00;;;;;;;16.50;67.81;101288.28;5016251;28;20038;-63
2021/08/09 03:09:12;;;;;;;9.82;2.70;;;;;;;16.50;67.75;101284.69;5027258;28;20514;-63
2021/08/09 03:11:42;;;;;;;7.88;2.88;;;;;;;16.50;68.15;101284.69;5034740;28;20037;-63
2021/08/09 03:14:30;;;;;;;9.10;3.05;;;;;;;16.49;68.25;101294.09;5032386;28;20076;-63
2021/08/09 03:17:05;;;;;;;10.50;3.35;;;;;;;16.48;67.79;101296.03;5031604;28;20042;-63
2021/08/09 03:19:32;;;;;;;8.40;2.72;;;;;;;16.46;68.04;101292.75;5032502;28;20095;-63
2021/08/09 03:22:02;;;;;;;9.25;2.75;;;;;;;16.43;68.00;101298.84;5032127;28;20049;-62
2021/08/09 03:24:33;;;;;;;8.52;2.47;;;;;;;16.44;68.18;101297.72;5032423;28;20045;-60
2021/08/09 03:27:00;;;;;;;6.38;2.40;;;;;;;16.45;68.61;101301.28;5032220;28;20040;-59
2021/08/09 03:29:28;;;;;;;9.95;2.90;;;;;;;16.44;68.35;101303.22;5031814;28;20055;-59
2021/08/09 03:31:56;;;;;;;11.25;3.28;;;;;;;16.45;68.48;101298.53;5032507;28;20053;-61
2021/08/09 03:34:24;;;;;;;11.93;3.40;;;;;;;16.46;68.43;101301.00;5031847;28;20128;-62
2021/08/09 03:36:52;;;;;;;10.30;2.60;;;;;;;16.50;68.10;101302.03;5043100;28;20072;-62
2021/08/09 03:39:23;;;;;;;7.85;2.83;;;;;;;16.49;68.14;101305.91;5037953;28;20119;-61
2021/08/09 03:41:50;;;;;;;8.95;3.13;;;;;;;16.50;68.42;101304.78;5051583;28;20053;-60
2021/08/09 03:44:18;;;;;;;9.68;2.78;;;;;;;16.51;68.26;101300.91;5049145;28;20057;-61
2021/08/09 03:46:46;;;;;;;8.57;2.53;;;;;;;16.50;68.21;101307.56;5031721;28;20037;-58
2021/08/09 03:49:15;;;;;;;7.43;2.53;;;;;;;16.47;68.15;101299.88;5031846;28;20045;-58
2021/08/09 03:51:42;;;;;;;9.98;3.13;;;;;;;16.46;68.27;101295.50;5031675;28;20038;-60
2021/08/09 03:54:10;;;;;;;9.45;3.20;;;;;;;16.43;68.84;101304.34;5031556;28;20099;-60
2021/08/09 03:56:38;;;;;;;13.18;2.90;;;;;;;16.42;68.64;101304.63;5032563;28;20041;-59
2021/08/09 03:59:06;;;;;;;8.48;2.40;;;;;;;16.43;68.92;101307.09;5032824;28;20037;-58
2021/08/09 04:01:38;;;;;;;7.70;2.70;;;;;;;16.44;68.51;101308.72;5030994;28;20042;-61
2021/08/09 04:04:08;;;;;;;8.18;2.60;;;;;;;16.45;68.72;101304.88;5031496;28;20049;-60
2021/08/09 04:06:36;;;;;;;5.88;2.45;;;;;;;16.43;68.85;101312.59;5032496;28;20918;-57
2021/08/09 04:09:07;;;;;;;7.07;2.83;;;;;;;16.42;68.69;101316.44;5032009;28;20394;-60
2021/08/09 04:11:37;;;;;;;10.15;3.10;;;;;;;16.42;68.86;101305.44;5031038;28;20411;-63
2021/08/09 04:14:06;;;;;;;7.55;2.70;;;;;;;16.40;69.15;101313.16;5032227;28;20053;-63
2021/08/09 04:16:35;;;;;;;8.20;2.70;;;;;;;16.42;69.01;101310.94;5031025;28;20103;-62
2021/08/09 04:19:04;;;;;;;6.05;2.42;;;;;;;16.42;69.28;101321.94;5031291;28;20046;-62
2021/08/09 04:21:32;;;;;;;7.38;2.63;;;;;;;16.42;69.33;101321.13;5032469;28;20052;-63
2021/08/09 04:24:00;;;;;;;9.43;3.30;;;;;;;16.42;69.08;101319.19;5031111;28;20132;-63
2021/08/09 04:26:27;;;;;;;7.90;3.10;;;;;;;16.43;69.17;101323.59;5032180;28;20484;-62
2021/08/09 04:28:55;;;;;;;10.18;3.03;;;;;;;16.43;69.36;101323.59;5031685;28;20816;-61
2021/08/09 04:31:23;;;;;;;10.98;3.03;;;;;;;16.42;69.74;101332.94;5030822;28;20500;-63
2021/08/09 04:33:51;;;;;;;8.05;3.20;;;;;;;16.41;69.30;101325.81;5031927;28;20599;-61
2021/08/09 04:36:19;;;;;;;11.13;3.35;;;;;;;16.39;69.84;101328.84;5045732;28;20506;-60
2021/08/09 04:38:48;;;;;;;10.80;2.95;;;;;;;16.36;69.96;101329.44;5030853;28;20492;-62
2021/08/09 04:41:17;;;;;;;8.05;3.20;;;;;;;16.32;70.09;101330.34;5030799;28;20053;-59
2021/08/09 04:43:46;;;;;;;9.10;3.15;;;;;;;16.30;70.07;101335.31;5030858;28;20404;-61
2021/08/09 04:46:17;;;;;;;10.13;3.00;;;;;;;16.30;70.09;101338.06;5030836;28;20466;-57
2021/08/09 04:48:45;;;;;;;6.93;2.40;;;;;;;16.32;69.95;101339.41;5031216;28;20041;-58
2021/08/09 04:51:14;;;;;;;12.80;3.22;;;;;;;16.35;69.97;101344.28;5030689;28;20051;-59
2021/08/09 04:53:46;;;;;;;10.07;3.17;;;;;;;16.33;69.89;101334.72;5030989;28;20081;-60
2021/08/09 04:56:16;;;;;;;9.85;3.28;;;;;;;16.30;70.43;101329.81;5030719;28;20471;-62
2021/08/09 04:58:44;;;;;;;10.98;3.60;;;;;;;16.28;70.30;101337.53;5030823;28;20059;-61
2021/08/09 05:01:12;;;;;;;8.80;3.25;;;;;;;16.24;70.93;101331.00;5030971;28;20065;-62
2021/08/09 05:03:40;;;;;;;10.70;3.80;;;;;;;16.25;71.06;101329.88;5033415;28;20061;-55
2021/08/09 05:06:15;;;;;;;14.18;3.47;;;;;;;16.24;70.82;101320.00;5031035;28;20132;-59
2021/08/09 05:08:44;;;;;;;9.48;3.10;;;;;;;16.21;71.06;101332.41;5031504;28;20059;-56
2021/08/09 05:11:12;;;;;;;8.05;3.10;;;;;;;16.18;71.14;101333.78;5030913;28;20034;-58
2021/08/09 05:13:50;;;;;;;8.20;3.10;;;;;;;16.24;71.39;101325.50;5030697;28;20049;-54
2021/08/09 05:16:18;;;;;;;8.02;3.10;;;;;;;16.30;71.35;101324.31;5031222;28;20054;-59
2021/08/09 05:18:46;;;;;;;8.23;3.10;;;;;;;16.30;70.86;101327.06;5031778;28;20048;-57
2021/08/09 05:21:17;;;;;;;8.10;2.92;;;;;;;16.31;71.23;101332.28;4334180;28;10000635;-55
2021/08/09 05:23:46;;;;;;;12.20;3.13;;;;;;;16.34;71.06;101330.84;5033847;28;20081;-59
2021/08/09 05:26:14;;;;;;;8.80;3.20;;;;;;;16.34;70.82;101336.34;5033398;28;20408;-61
2021/08/09 05:28:42;;;;;;;11.88;3.42;;;;;;;16.38;71.02;101332.72;5032201;28;20407;-57
2021/08/09 05:31:09;;;;;;;8.57;2.75;;;;;;;16.37;71.33;101331.06;5032783;28;20037;-57
2021/08/09 05:33:38;;;;;;;7.15;3.08;;;;;;;16.38;71.01;101335.47;5033262;28;20041;-58
2021/08/09 05:36:06;;;;;;;6.93;2.95;;;;;;;16.37;71.07;101342.06;5051609;28;20049;-58
2021/08/09 05:38:34;;;;;;;9.63;3.03;;;;;;;16.36;71.15;101339.63;5042209;28;20038;-60
2021/08/09 05:41:03;;;;;;;7.25;2.97;;;;;;;16.49;71.53;101336.16;5031322;28;20049;-56
2021/08/09 05:43:31;;;;;;;9.00;3.05;;;;;;;16.50;71.11;101339.72;5031741;28;20065;-58
2021/08/09 05:46:00;;;;;;;7.25;3.03;;;;;;;16.47;71.30;101338.38;5031356;28;20455;-59
2021/08/09 05:48:33;;;;;;;7.57;3.00;;;;;;;16.43;71.30;101345.59;5031900;28;20045;-59
2021/08/09 05:51:01;;;;;;;11.77;3.63;;;;;;;16.34;71.68;101341.88;5030490;28;20140;-57
2021/08/09 05:53:32;;;;;;;10.55;3.35;;;;;;;16.34;72.07;101344.63;5040421;28;20056;-56
2021/08/09 05:56:00;;;;;;;13.10;3.78;;;;;;;16.30;72.38;101346.31;5043558;28;20045;-59
2021/08/09 05:58:37;;;;;;;9.82;3.53;;;;;;;16.38;72.68;101343.72;5039093;28;20091;-56
2021/08/09 06:01:06;;;;;;;11.75;3.50;;;;;;;16.34;71.99;101341.88;5044078;28;20040;-58
2021/08/09 06:03:37;;;;;;;10.85;3.25;;;;;;;16.40;72.60;101337.91;5040177;28;20129;-57
2021/08/09 06:06:04;;;;;;;8.65;3.10;;;;;;;16.36;72.19;101345.13;5047809;28;20053;-58
2021/08/09 06:08:42;;;;;;;10.10;3.80;;;;;;;16.35;72.14;101348.97;5041204;28;20057;-55
2021/08/09 06:11:11;;;;;;;9.02;3.22;;;;;;;16.38;72.46;101342.91;5036191;28;20111;-58
2021/08/09 06:13:38;;;;;;;10.05;2.83;;;;;;;16.36;72.50;101350.63;5036724;28;20174;-58
2021/08/09 06:16:07;;;;;;;9.40;3.20;;;;;;;16.39;72.25;101355.53;5048975;28;20045;-56
2021/08/09 06:18:36;;;;;;;7.95;2.78;;;;;;;16.39;72.04;101356.34;5047094;28;20041;-59
2021/08/09 06:21:06;;;;;;;9.85;2.88;;;;;;;16.40;72.42;101362.66;5034672;28;20546;-59
2021/08/09 06:23:36;;;;;;;8.07;3.10;;;;;;;16.44;72.47;101360.16;5048656;28;20059;-59
2021/08/09 06:26:07;;;;;;;5.15;2.45;;;;;;;16.45;72.74;101365.38;5048628;28;20427;-57
2021/08/09 06:28:38;;;;;;;8.23;2.90;;;;;;;16.49;72.37;101363.66;5048573;28;21561;-59
2021/08/09 06:31:07;;;;;;;8.23;3.00;;;;;;;16.52;72.29;101368.56;5034027;28;20052;-58
2021/08/09 06:33:36;;;;;;;12.63;3.92;;;;;;;16.48;72.08;101363.97;5048097;28;20400;-60
2021/08/09 06:36:03;;;;;;;12.80;4.40;;;;;;;16.47;72.22;101365.88;5051562;28;20094;-59
2021/08/09 06:38:33;;;;;;;13.00;4.25;;;;;;;16.48;72.07;101359.28;5039253;28;20385;-59
2021/08/09 06:41:02;;;;;;;10.07;3.72;;;;;;;16.48;72.10;101370.28;5031510;28;20128;-59
2021/08/09 06:43:31;;;;;;;13.18;4.80;;;;;;;16.50;72.33;101364.47;5038849;28;20041;-57
2021/08/09 06:46:00;;;;;;;12.48;4.25;;;;;;;16.51;72.50;101368.88;5032203;28;20504;-59
2021/08/09 06:48:28;;;;;;;15.55;5.03;;;;;;;16.55;72.66;101364.44;5037752;28;20037;-59
2021/08/09 06:50:56;;;;;;;19.88;5.30;;;;;;;16.59;72.48;101371.78;5043960;28;20090;-59
2021/08/09 06:53:24;;;;;;;17.13;5.18;;;;;;;16.73;72.34;101373.81;5031081;28;20033;-59
2021/08/09 06:55:53;;;;;;;13.50;4.65;;;;;;;16.75;72.17;101366.91;5031837;28;20080;-59
2021/08/09 06:58:24;;;;;;;16.10;4.95;;;;;;;16.78;71.99;101369.06;5044703;28;20048;-59
2021/08/09 07:00:53;;;;;;;11.77;4.25;;;;;;;16.82;71.91;101364.63;5042166;28;20056;-59
2021/08/09 07:03:21;;;;;;;12.02;3.80;;;;;;;16.83;71.60;101362.69;5037207;28;20067;-59
2021/08/09 07:05:49;;;;;;;9.32;3.58;;;;;;;16.80;71.54;101366.03;5051699;28;20488;-59
2021/08/09 07:08:21;;;;;;;10.52;4.05;;;;;;;16.78;72.08;101369.06;5039608;28;20124;-58
2021/08/09 07:10:51;;;;;;;9.48;3.60;;;;;;;16.79;71.90;101369.91;5042955;28;20044;-61
2021/08/09 07:13:21;;;;;;;9.73;3.20;;;;;;;16.91;71.96;101370.28;5041199;28;20496;-58
2021/08/09 07:15:48;;;;;;;7.78;3.05;;;;;;;16.93;71.43;101365.31;5041365;28;20442;-57
2021/08/09 07:18:16;;;;;;;6.22;2.80;;;;;;;17.00;71.14;101365.75;5031575;28;20522;-58
2021/08/09 07:20:44;;;;;;;7.90;3.03;;;;;;;17.05;71.02;101362.09;5040364;28;20083;-58
2021/08/09 07:23:13;;;;;;;10.50;2.95;;;;;;;17.03;70.99;101369.84;5050540;28;20061;-57
2021/08/09 07:25:41;;;;;;;8.55;3.25;;;;;;;16.97;71.60;101366.34;5038861;28;20454;-59
2021/08/09 07:28:10;;;;;;;10.90;3.42;;;;;;;17.08;71.42;101371.69;5051485;28;20507;-58
2021/08/09 07:30:37;;;;;;;13.15;3.25;;;;;;;17.25;70.38;101366.47;5050983;28;20041;-59
2021/08/09 07:33:06;;;;;;;8.00;2.70;;;;;;;17.17;70.35;101367.13;5039675;28;20373;-59
2021/08/09 07:35:33;;;;;;;7.30;3.25;;;;;;;17.11;70.74;101365.59;5046676;28;20045;-57
2021/08/09 07:38:02;;;;;;;8.85;3.20;;;;;;;17.04;71.21;101372.28;5051632;28;20037;-54
2021/08/09 07:40:31;;;;;;;9.68;3.30;;;;;;;17.04;71.59;101371.47;5038399;28;20176;-57
2021/08/09 07:43:04;;;;;;;8.23;3.15;;;;;;;17.04;71.31;101371.47;5031867;28;20092;-59
2021/08/09 07:45:32;;;;;;;7.47;3.00;;;;;;;17.04;71.20;101366.78;5015016;28;20046;-58
2021/08/09 07:48:03;;;;;;;5.88;2.70;;;;;;;17.20;71.08;101375.63;5031351;28;20038;-59
2021/08/09 07:50:33;;;;;;;6.40;2.90;;;;;;;17.33;70.60;101368.53;5031283;28;20503;-58
2021/08/09 07:53:01;;;;;;;9.88;3.00;;;;;;;17.37;70.39;101369.59;5032509;28;20121;-59
2021/08/09 07:55:30;;;;;;;9.05;2.67;;;;;;;17.38;70.19;101370.41;5031273;28;20045;-60
2021/08/09 07:57:57;;;;;;;8.07;3.05;;;;;;;17.42;69.97;101365.94;5031239;28;20034;-59
2021/08/09 08:00:26;;;;;;;8.43;3.00;;;;;;;17.51;69.87;101368.78;5031320;28;20044;-59
2021/08/09 08:02:59;;;;;;;9.98;3.33;;;;;;;17.54;69.42;101373.72;5014931;28;20053;-59
2021/08/09 08:05:26;;;;;;;6.95;2.95;;;;;;;17.44;69.79;101370.03;5014742;28;20054;-59
2021/08/09 08:07:55;;;;;;;10.88;3.08;;;;;;;17.45;69.78;101368.06;5031058;28;20127;-57
2021/08/09 08:10:24;;;;;;;10.15;4.05;;;;;;;17.41;70.11;101369.78;5031476;28;20408;-57
2021/08/09 08:12:53;;;;;;;7.47;2.72;;;;;;;17.39;70.12;101372.03;5031115;28;20038;-61
2021/08/09 08:15:21;;;;;;;7.20;3.30;;;;;;;17.41;70.07;101375.28;5031095;28;20080;-59
2021/08/09 08:17:49;;;;;;;7.43;2.88;;;;;;;17.48;69.88;101369.41;5031368;28;20076;-56
2021/08/09 08:20:18;;;;;;;5.68;2.63;;;;;;;17.50;69.85;101372.69;5030440;28;20047;-57
2021/08/09 08:22:45;;;;;;;5.45;2.67;;;;;;;17.58;69.45;101366.47;5032235;28;20037;-59
2021/08/09 08:25:16;;;;;;;8.10;2.80;;;;;;;17.65;68.48;101373.25;5031031;28;20563;-59
2021/08/09 08:27:45;;;;;;;8.60;3.00;;;;;;;17.77;68.46;101363.66;5030847;28;20046;-58
2021/08/09 08:30:14;;;;;;;6.20;2.70;;;;;;;17.94;68.29;101368.63;5031938;28;20052;-59
2021/08/09 08:32:55;;;;;;;4.90;2.30;;;;;;;17.85;68.81;101355.56;5030890;28;20056;-59
2021/08/09 08:35:23;;;;;;;5.35;2.42;;;;;;;17.93;68.09;101358.72;5044057;28;20045;-58
2021/08/09 08:37:53;;;;;;;10.32;2.78;;;;;;;17.92;67.89;101357.06;5050828;28;20032;-58
2021/08/09 08:40:21;;;;;;;5.93;2.67;;;;;;;17.88;68.05;101362.41;5050674;28;20136;-60
2021/08/09 08:42:49;;;;;;;6.25;2.90;;;;;;;17.81;68.50;101362.78;5034092;28;20132;-59
2021/08/09 08:45:24;;;;;;;9.43;2.83;;;;;;;17.78;69.22;101362.56;5030793;28;20568;-57
2021/08/09 08:47:57;;;;;;;7.28;2.85;;;;;;;17.79;69.17;101353.97;5030426;28;20052;-58
2021/08/09 08:50:30;;;;;;;7.88;2.92;;;;;;;17.87;69.16;101361.59;5030472;28;20050;-58
2021/08/09 08:52:57;;;;;;;8.30;2.65;;;;;;;17.90;69.07;101364.84;5030380;28;20069;-59
2021/08/09 08:55:26;;;;;;;7.05;2.70;;;;;;;17.99;68.53;101361.09;5031840;28;20053;-58
2021/08/09 08:57:54;;;;;;;7.25;2.78;;;;;;;18.03;68.56;101369.56;5036122;28;20046;-60
2021/08/09 09:00:22;;;;;;;7.82;2.45;;;;;;;18.06;68.19;101368.94;5035943;28;20147;-59
2021/08/09 09:02:49;;;;;;;6.18;2.50;;;;;;;18.08;68.10;101367.50;5035438;28;20053;-58
2021/08/09 09:05:21;;;;;;;6.72;2.65;;;;;;;18.20;67.40;101369.75;5035601;28;20056;-58
2021/08/09 09:07:53;;;;;;;4.00;1.98;;;;;;;18.17;67.59;101370.38;5035978;28;20120;-58
2021/08/09 09:10:23;;;;;;;6.03;2.83;;;;;;;18.21;67.48;101371.41;5035629;28;20120;-59
2021/08/09 09:13:15;;;;;;;7.45;2.85;;;;;;;18.23;67.38;101371.94;5035930;28;20045;-59
2021/08/09 09:16:03;;;;;;;8.07;2.42;;;;;;;18.17;67.89;101370.38;5035706;28;20372;-59
2021/08/09 09:19:00;;;;;;;5.85;2.60;;;;;;;18.27;67.49;101381.22;5035029;28;20095;-58
2021/08/09 09:21:35;;;;;;;4.78;2.60;;;;;;;18.46;66.42;101369.25;5035607;28;20041;-57
2021/08/09 09:24:10;;;;;;;8.10;2.78;;;;;;;18.47;66.43;101373.63;5035653;28;20337;-60
2021/08/09 09:26:40;;;;;;;8.70;2.63;;;;;;;18.63;66.26;101374.94;5035518;28;20045;-59
2021/08/09 09:29:11;;;;;;;9.27;3.10;;;;;;;18.75;65.28;101379.94;5035457;28;20782;-59
2021/08/09 09:31:40;;;;;;;4.03;2.35;;;;;;;18.65;65.88;101380.19;5034985;28;20033;-56
2021/08/09 09:34:10;;;;;;;6.78;2.28;;;;;;;18.67;65.67;101387.03;5037455;28;20049;-58
2021/08/09 09:36:53;;;;;;;6.13;2.42;;;;;;;18.60;65.57;101381.09;5055205;28;20052;-60
2021/08/09 09:39:37;;;;;;;6.65;2.45;;;;;;;18.54;66.31;101379.56;5039548;28;20146;-59
2021/08/09 09:42:11;;;;;;;7.28;2.40;;;;;;;18.56;66.10;101382.03;5042570;28;20145;-60
2021/08/09 09:44:40;;;;;;;8.88;2.67;;;;;;;18.53;66.20;101378.75;5034742;28;20044;-58
2021/08/09 09:47:21;;;;;;;12.50;3.10;;;;;;;18.51;65.65;101382.94;5034938;28;20048;-56
2021/08/09 09:49:59;;;;;;;2.88;1.90;;;;;;;18.69;65.65;101376.50;5034731;28;20029;-59
2021/08/09 09:52:30;;;;;;;9.48;2.50;;;;;;;18.86;64.22;101372.31;5034052;28;20072;-60
2021/08/09 09:55:00;;;;;;;4.63;2.30;;;;;;;18.84;64.19;101372.59;5040847;28;20037;-58
2021/08/09 09:57:29;;;;;;;9.70;2.70;;;;;;;18.74;64.59;101373.63;5042493;28;20037;-57
2021/08/09 09:59:58;;;;;;;6.35;2.40;;;;;;;18.73;64.28;101366.44;5034752;28;20041;-60
2021/08/09 10:02:26;;;;;;;8.68;2.47;;;;;;;18.78;64.80;101373.00;5034451;28;20053;-59
2021/08/09 10:04:54;;;;;;;5.68;1.88;;;;;;;18.87;63.42;101371.16;5034764;28;20408;-58
2021/08/09 10:07:25;;;;;;;7.32;2.72;;;;;;;18.87;63.85;101380.25;5033948;28;20057;-54
2021/08/09 10:09:54;;;;;;;18.77;5.85;;;;;;;18.92;62.86;101374.59;5034573;28;20423;-59
2021/08/09 10:12:26;;;;;;;23.85;7.65;;;;;;;18.97;64.21;101373.69;5034544;28;20045;-58
2021/08/09 10:14:55;;;;;;;14.85;4.43;;;;;;;19.00;62.65;101384.13;5033868;28;20140;-57
2021/08/09 10:17:24;;;;;;;22.20;7.07;;;;;;;18.98;61.93;101382.78;5034443;28;20079;-58
2021/08/09 10:19:54;;;;;;;9.00;2.85;;;;;;;18.88;62.15;101373.63;5034245;28;20042;-59
2021/08/09 10:22:23;;;;;;;26.38;8.70;;;;;;;18.88;63.34;101381.06;5033142;28;20041;-57
2021/08/09 10:24:57;;;;;;;11.88;4.05;;;;;;;18.80;62.61;101390.91;5033093;28;20037;-59
2021/08/09 10:27:51;;;;;;;114.32;73.35;;;;;;;18.89;67.00;101379.94;5033337;28;20076;-57
2021/08/09 10:30:22;;;;;;;177.00;100.85;;;;;;;19.11;68.27;101385.50;5034020;28;20072;-56
2021/08/09 10:32:52;;;;;;;94.72;56.08;;;;;;;19.31;65.82;101367.66;5034049;28;20041;-54
2021/08/09 10:35:39;;;;;;;31.08;17.40;;;;;;;19.22;63.19;101377.81;5046368;28;20045;-59
2021/08/09 10:38:28;;;;;;;102.88;57.90;;;;;;;19.16;65.44;101379.84;5042613;28;20127;-58
2021/08/09 10:41:07;;;;;;;53.13;30.08;;;;;;;19.20;65.42;101387.53;5042121;28;20072;-56
2021/08/09 10:43:40;;;;;;;60.88;34.15;;;;;;;19.12;64.25;101389.91;5053571;28;20437;-59
2021/08/09 10:46:33;;;;;;;32.70;18.90;;;;;;;19.07;64.77;101392.81;5048479;28;20400;-56
2021/08/09 10:49:01;;;;;;;77.47;44.40;;;;;;;19.05;66.51;101394.22;5040958;28;20549;-55
2021/08/09 10:51:50;;;;;;;94.97;54.53;;;;;;;19.04;66.65;101395.34;5042827;28;20427;-57
2021/08/09 10:54:26;;;;;;;20.30;11.20;;;;;;;18.96;64.47;101401.63;4696100;28;10000562;-55
2021/08/09 10:56:55;;;;;;;37.05;22.70;;;;;;;18.91;64.89;101400.59;5043157;28;20052;-57
2021/08/09 10:59:44;;;;;;;30.13;16.20;;;;;;;18.91;64.36;101394.28;5043627;28;20041;-54
2021/08/09 11:02:22;;;;;;;14.07;6.35;;;;;;;18.95;64.07;101389.75;5043750;28;20503;-56
2021/08/09 11:05:15;;;;;;;55.80;28.58;;;;;;;19.06;66.64;101402.19;5042286;28;20447;-56
2021/08/09 11:07:44;;;;;;;24.50;13.38;;;;;;;19.16;62.90;101396.44;5041839;28;20119;-56
2021/08/09 11:10:12;;;;;;;7.72;3.55;;;;;;;19.14;62.39;101400.63;5042976;28;20046;-56
2021/08/09 11:13:00;;;;;;;68.10;40.53;;;;;;;19.12;62.84;101397.34;5045649;28;20044;-56
2021/08/09 11:15:28;;;;;;;66.38;35.33;;;;;;;19.08;64.68;101405.47;5047554;28;20060;-57
2021/08/09 11:17:58;;;;;;;31.10;17.70;;;;;;;19.16;62.96;101401.94;5044629;28;20048;-57
2021/08/09 11:20:35;;;;;;;28.25;15.82;;;;;;;19.04;64.90;101398.94;5042663;28;20041;-55
2021/08/09 11:23:11;;;;;;;16.10;7.22;;;;;;;18.98;62.60;101402.94;5044220;28;20041;-57
2021/08/09 11:25:44;;;;;;;10.73;4.32;;;;;;;18.94;62.29;101401.94;5042346;28;20033;-56
2021/08/09 11:28:23;;;;;;;23.20;11.93;;;;;;;18.97;63.03;101398.53;5047759;28;20052;-57
2021/08/09 11:30:56;;;;;;;18.60;9.15;;;;;;;19.05;62.60;101395.06;5043642;28;20549;-58
2021/08/09 11:33:27;;;;;;;50.33;28.50;;;;;;;19.19;62.35;101400.50;5060324;28;20056;-57
2021/08/09 11:36:06;;;;;;;15.32;8.02;;;;;;;19.26;62.20;101400.91;5049566;28;20491;-56
2021/08/09 11:38:52;;;;;;;54.65;28.65;;;;;;;19.31;64.41;101400.81;5040970;28;20484;-56
2021/08/09 11:41:24;;;;;;;9.40;4.22;;;;;;;19.27;61.13;101401.75;5041505;28;20053;-56